sensor_id;sensor_type;location;lat;lon;timestamp;temperature;humidity
69189;DHT22;56302;52.322;5.926;2022-12-20T00:01:23;9.00;91.50
69189;DHT22;56302;52.322;5.926;2022-12-20T00:03:50;8.90;91.50
69189;DHT22;56302;52.322;5.926;2022-12-20T00:06:16;9.00;91.40
69189;DHT22;56302;52.322;5.926;2022-12-20T00:08:42;9.00;91.40
69189;DHT22;56302;52.322;5.926;2022-12-20T00:11:10;9.00;91.40
69189;DHT22;56302;52.322;5.926;2022-12-20T00:13:36;9.00;90.80
69189;DHT22;56302;52.322;5.926;2022-12-20T00:16:07;9.00;91.50
69189;DHT22;56302;52.322;5.926;2022-12-20T00:18:34;9.00;91.40
69189;DHT22;56302;52.322;5.926;2022-12-20T00:21:00;9.00;91.50
69189;DHT22;56302;52.322;5.926;2022-12-20T00:23:27;8.90;91.40
69189;DHT22;56302;52.322;5.926;2022-12-20T00:26:06;9.00;91.40
69189;DHT22;56302;52.322;5.926;2022-12-20T00:28:33;8.90;91.20
69189;DHT22;56302;52.322;5.926;2022-12-20T00:30:59;9.00;91.20
69189;DHT22;56302;52.322;5.926;2022-12-20T00:33:25;9.00;91.30
69189;DHT22;56302;52.322;5.926;2022-12-20T00:35:51;9.00;91.20
69189;DHT22;56302;52.322;5.926;2022-12-20T00:38:18;9.00;91.20
69189;DHT22;56302;52.322;5.926;2022-12-20T00:40:44;9.00;91.10
69189;DHT22;56302;52.322;5.926;2022-12-20T00:43:09;9.00;91.00
69189;DHT22;56302;52.322;5.926;2022-12-20T00:45:35;9.00;91.10
69189;DHT22;56302;52.322;5.926;2022-12-20T00:48:00;9.10;90.50
69189;DHT22;56302;52.322;5.926;2022-12-20T00:50:26;9.10;90.70
69189;DHT22;56302;52.322;5.926;2022-12-20T00:52:51;9.10;90.60
69189;DHT22;56302;52.322;5.926;2022-12-20T00:55:17;9.10;90.80
69189;DHT22;56302;52.322;5.926;2022-12-20T00:57:42;9.10;90.80
69189;DHT22;56302;52.322;5.926;2022-12-20T01:00:08;9.10;91.10
69189;DHT22;56302;52.322;5.926;2022-12-20T01:02:34;9.30;90.40
69189;DHT22;56302;52.322;5.926;2022-12-20T01:04:59;9.30;90.20
69189;DHT22;56302;52.322;5.926;2022-12-20T01:07:25;9.30;90.00
69189;DHT22;56302;52.322;5.926;2022-12-20T01:09:51;9.40;89.70
69189;DHT22;56302;52.322;5.926;2022-12-20T01:12:16;9.30;90.10
69189;DHT22;56302;52.322;5.926;2022-12-20T01:14:43;9.40;90.00
69189;DHT22;56302;52.322;5.926;2022-12-20T01:17:08;9.40;89.80
69189;DHT22;56302;52.322;5.926;2022-12-20T01:19:34;9.50;89.10
69189;DHT22;56302;52.322;5.926;2022-12-20T01:21:59;9.50;89.20
69189;DHT22;56302;52.322;5.926;2022-12-20T01:24:25;9.40;89.30
69189;DHT22;56302;52.322;5.926;2022-12-20T01:26:50;9.40;89.50
69189;DHT22;56302;52.322;5.926;2022-12-20T01:29:16;9.50;89.20
69189;DHT22;56302;52.322;5.926;2022-12-20T01:31:42;9.60;88.90
69189;DHT22;56302;52.322;5.926;2022-12-20T01:34:07;9.60;88.90
69189;DHT22;56302;52.322;5.926;2022-12-20T01:36:35;9.70;88.20
69189;DHT22;56302;52.322;5.926;2022-12-20T01:39:13;9.70;88.20
69189;DHT22;56302;52.322;5.926;2022-12-20T01:41:41;9.70;88.50
69189;DHT22;56302;52.322;5.926;2022-12-20T01:46:41;9.60;88.90
69189;DHT22;56302;52.322;5.926;2022-12-20T01:49:18;9.70;88.70
69189;DHT22;56302;52.322;5.926;2022-12-20T01:54:25;9.70;89.80
69189;DHT22;56302;52.322;5.926;2022-12-20T01:56:56;9.60;91.10
69189;DHT22;56302;52.322;5.926;2022-12-20T01:59:24;9.50;92.00
69189;DHT22;56302;52.322;5.926;2022-12-20T02:01:50;9.50;92.80
69189;DHT22;56302;52.322;5.926;2022-12-20T02:04:17;9.40;93.50
69189;DHT22;56302;52.322;5.926;2022-12-20T02:06:42;9.30;94.00
69189;DHT22;56302;52.322;5.926;2022-12-20T02:09:08;9.30;94.50
69189;DHT22;56302;52.322;5.926;2022-12-20T02:11:45;9.30;94.90
69189;DHT22;56302;52.322;5.926;2022-12-20T02:17:38;9.20;96.00
69189;DHT22;56302;52.322;5.926;2022-12-20T02:29:28;9.10;97.90
69189;DHT22;56302;52.322;5.926;2022-12-20T02:34:35;9.10;98.40
69189;DHT22;56302;52.322;5.926;2022-12-20T02:37:01;9.00;98.60
69189;DHT22;56302;52.322;5.926;2022-12-20T02:39:29;9.00;98.90
69189;DHT22;56302;52.322;5.926;2022-12-20T02:42:09;9.00;99.10
69189;DHT22;56302;52.322;5.926;2022-12-20T02:45:21;9.00;99.20
69189;DHT22;56302;52.322;5.926;2022-12-20T02:48:00;8.90;99.30
69189;DHT22;56302;52.322;5.926;2022-12-20T02:50:34;9.00;99.60
69189;DHT22;56302;52.322;5.926;2022-12-20T02:53:00;8.90;99.70
69189;DHT22;56302;52.322;5.926;2022-12-20T02:55:58;8.90;99.70
69189;DHT22;56302;52.322;5.926;2022-12-20T02:58:39;8.90;99.90
69189;DHT22;56302;52.322;5.926;2022-12-20T03:01:10;8.90;99.90
69189;DHT22;56302;52.322;5.926;2022-12-20T03:03:37;8.90;99.90
69189;DHT22;56302;52.322;5.926;2022-12-20T03:06:03;8.90;99.90
69189;DHT22;56302;52.322;5.926;2022-12-20T03:08:29;8.90;99.90
69189;DHT22;56302;52.322;5.926;2022-12-20T03:10:55;8.90;99.90
69189;DHT22;56302;52.322;5.926;2022-12-20T03:13:22;8.90;99.90
69189;DHT22;56302;52.322;5.926;2022-12-20T03:15:48;8.90;99.90
69189;DHT22;56302;52.322;5.926;2022-12-20T03:18:14;8.80;99.90
69189;DHT22;56302;52.322;5.926;2022-12-20T03:20:39;8.80;99.90
69189;DHT22;56302;52.322;5.926;2022-12-20T03:23:05;8.80;99.90
69189;DHT22;56302;52.322;5.926;2022-12-20T03:25:31;8.80;99.90
69189;DHT22;56302;52.322;5.926;2022-12-20T03:27:56;8.90;99.90
69189;DHT22;56302;52.322;5.926;2022-12-20T03:30:22;8.90;99.90
69189;DHT22;56302;52.322;5.926;2022-12-20T03:32:48;8.90;99.90
69189;DHT22;56302;52.322;5.926;2022-12-20T03:35:13;8.90;99.90
69189;DHT22;56302;52.322;5.926;2022-12-20T03:37:39;8.90;99.90
69189;DHT22;56302;52.322;5.926;2022-12-20T03:40:06;8.90;99.90
69189;DHT22;56302;52.322;5.926;2022-12-20T03:42:31;8.90;99.90
69189;DHT22;56302;52.322;5.926;2022-12-20T03:44:57;8.90;99.90
69189;DHT22;56302;52.322;5.926;2022-12-20T03:47:22;8.90;99.90
69189;DHT22;56302;52.322;5.926;2022-12-20T03:49:48;9.00;99.90
69189;DHT22;56302;52.322;5.926;2022-12-20T03:52:14;8.90;99.90
69189;DHT22;56302;52.322;5.926;2022-12-20T03:54:39;8.90;99.90
69189;DHT22;56302;52.322;5.926;2022-12-20T03:57:05;8.90;99.90
69189;DHT22;56302;52.322;5.926;2022-12-20T03:59:31;8.90;99.90
69189;DHT22;56302;52.322;5.926;2022-12-20T04:01:57;9.00;99.90
69189;DHT22;56302;52.322;5.926;2022-12-20T04:04:22;9.00;99.90
69189;DHT22;56302;52.322;5.926;2022-12-20T04:06:48;8.90;99.90
69189;DHT22;56302;52.322;5.926;2022-12-20T04:09:14;8.90;99.90
69189;DHT22;56302;52.322;5.926;2022-12-20T04:11:40;8.90;99.90
69189;DHT22;56302;52.322;5.926;2022-12-20T04:14:06;9.00;99.90
69189;DHT22;56302;52.322;5.926;2022-12-20T04:16:32;9.00;99.80
69189;DHT22;56302;52.322;5.926;2022-12-20T04:18:58;9.00;99.80
69189;DHT22;56302;52.322;5.926;2022-12-20T04:21:28;9.00;99.60
69189;DHT22;56302;52.322;5.926;2022-12-20T04:23:54;9.00;99.70
69189;DHT22;56302;52.322;5.926;2022-12-20T04:26:20;9.00;99.70
69189;DHT22;56302;52.322;5.926;2022-12-20T04:28:46;9.10;99.60
69189;DHT22;56302;52.322;5.926;2022-12-20T04:31:12;9.10;99.00
69189;DHT22;56302;52.322;5.926;2022-12-20T04:33:38;9.10;98.90
69189;DHT22;56302;52.322;5.926;2022-12-20T04:36:04;9.20;98.80
69189;DHT22;56302;52.322;5.926;2022-12-20T04:38:30;9.20;98.70
69189;DHT22;56302;52.322;5.926;2022-12-20T04:40:56;9.20;98.60
69189;DHT22;56302;52.322;5.926;2022-12-20T04:43:23;9.20;98.60
69189;DHT22;56302;52.322;5.926;2022-12-20T04:45:50;9.20;98.80
69189;DHT22;56302;52.322;5.926;2022-12-20T04:48:17;9.20;98.70
69189;DHT22;56302;52.322;5.926;2022-12-20T04:50:47;9.20;98.60
69189;DHT22;56302;52.322;5.926;2022-12-20T04:53:13;9.20;98.60
69189;DHT22;56302;52.322;5.926;2022-12-20T04:55:57;9.30;98.30
69189;DHT22;56302;52.322;5.926;2022-12-20T04:58:22;9.40;98.10
69189;DHT22;56302;52.322;5.926;2022-12-20T05:00:48;9.40;97.80
69189;DHT22;56302;52.322;5.926;2022-12-20T05:03:13;9.40;97.60
69189;DHT22;56302;52.322;5.926;2022-12-20T05:05:39;9.50;97.40
69189;DHT22;56302;52.322;5.926;2022-12-20T05:08:04;9.50;97.30
69189;DHT22;56302;52.322;5.926;2022-12-20T05:10:40;9.50;97.30
69189;DHT22;56302;52.322;5.926;2022-12-20T05:13:06;9.50;97.30
69189;DHT22;56302;52.322;5.926;2022-12-20T05:15:31;9.50;97.20
69189;DHT22;56302;52.322;5.926;2022-12-20T05:17:57;9.50;97.10
69189;DHT22;56302;52.322;5.926;2022-12-20T05:20:27;9.50;97.30
69189;DHT22;56302;52.322;5.926;2022-12-20T05:22:53;9.50;97.10
69189;DHT22;56302;52.322;5.926;2022-12-20T05:25:44;9.60;97.00
69189;DHT22;56302;52.322;5.926;2022-12-20T05:28:29;9.50;97.00
69189;DHT22;56302;52.322;5.926;2022-12-20T05:30:54;9.60;97.10
69189;DHT22;56302;52.322;5.926;2022-12-20T05:33:20;9.70;97.20
69189;DHT22;56302;52.322;5.926;2022-12-20T05:35:45;9.60;97.40
69189;DHT22;56302;52.322;5.926;2022-12-20T05:38:11;9.60;97.80
69189;DHT22;56302;52.322;5.926;2022-12-20T05:40:36;9.60;98.10
69189;DHT22;56302;52.322;5.926;2022-12-20T05:43:03;9.60;98.40
69189;DHT22;56302;52.322;5.926;2022-12-20T05:45:28;9.60;98.70
69189;DHT22;56302;52.322;5.926;2022-12-20T05:47:54;9.60;99.10
69189;DHT22;56302;52.322;5.926;2022-12-20T05:50:19;9.60;99.40
69189;DHT22;56302;52.322;5.926;2022-12-20T05:52:45;9.60;99.70
69189;DHT22;56302;52.322;5.926;2022-12-20T05:55:10;9.60;99.90
69189;DHT22;56302;52.322;5.926;2022-12-20T05:57:36;9.50;99.90
69189;DHT22;56302;52.322;5.926;2022-12-20T06:00:03;9.50;99.90
69189;DHT22;56302;52.322;5.926;2022-12-20T06:02:29;9.50;99.90
69189;DHT22;56302;52.322;5.926;2022-12-20T06:04:54;9.60;99.90
69189;DHT22;56302;52.322;5.926;2022-12-20T06:07:20;9.50;99.90
69189;DHT22;56302;52.322;5.926;2022-12-20T06:09:46;9.50;99.90
69189;DHT22;56302;52.322;5.926;2022-12-20T06:12:11;9.50;99.90
69189;DHT22;56302;52.322;5.926;2022-12-20T06:14:38;9.50;99.90
69189;DHT22;56302;52.322;5.926;2022-12-20T06:17:03;9.50;99.90
69189;DHT22;56302;52.322;5.926;2022-12-20T06:19:29;9.50;99.90
69189;DHT22;56302;52.322;5.926;2022-12-20T06:21:54;9.50;99.90
69189;DHT22;56302;52.322;5.926;2022-12-20T06:24:21;9.50;99.90
69189;DHT22;56302;52.322;5.926;2022-12-20T06:26:50;9.60;99.90
69189;DHT22;56302;52.322;5.926;2022-12-20T06:29:15;9.50;99.90
69189;DHT22;56302;52.322;5.926;2022-12-20T06:31:42;9.60;99.90
69189;DHT22;56302;52.322;5.926;2022-12-20T06:34:08;9.60;99.90
69189;DHT22;56302;52.322;5.926;2022-12-20T06:36:34;9.60;99.90
69189;DHT22;56302;52.322;5.926;2022-12-20T06:39:00;9.60;99.90
69189;DHT22;56302;52.322;5.926;2022-12-20T06:41:25;9.60;99.90
69189;DHT22;56302;52.322;5.926;2022-12-20T06:43:51;9.60;99.90
69189;DHT22;56302;52.322;5.926;2022-12-20T06:46:16;9.60;99.90
69189;DHT22;56302;52.322;5.926;2022-12-20T06:48:42;9.60;99.90
69189;DHT22;56302;52.322;5.926;2022-12-20T06:51:07;9.60;99.90
69189;DHT22;56302;52.322;5.926;2022-12-20T06:53:33;9.60;99.90
69189;DHT22;56302;52.322;5.926;2022-12-20T06:55:58;9.60;99.90
69189;DHT22;56302;52.322;5.926;2022-12-20T06:58:24;9.60;99.90
69189;DHT22;56302;52.322;5.926;2022-12-20T07:00:49;9.60;99.90
69189;DHT22;56302;52.322;5.926;2022-12-20T07:03:15;9.60;99.90
69189;DHT22;56302;52.322;5.926;2022-12-20T07:05:40;9.60;99.90
69189;DHT22;56302;52.322;5.926;2022-12-20T07:08:06;9.60;99.90
69189;DHT22;56302;52.322;5.926;2022-12-20T07:10:33;9.60;99.90
69189;DHT22;56302;52.322;5.926;2022-12-20T07:12:59;9.60;99.90
69189;DHT22;56302;52.322;5.926;2022-12-20T07:15:25;9.60;99.90
69189;DHT22;56302;52.322;5.926;2022-12-20T07:17:50;9.60;99.90
69189;DHT22;56302;52.322;5.926;2022-12-20T07:20:16;9.60;99.90
69189;DHT22;56302;52.322;5.926;2022-12-20T07:22:42;9.50;99.90
69189;DHT22;56302;52.322;5.926;2022-12-20T07:25:08;9.50;99.90
69189;DHT22;56302;52.322;5.926;2022-12-20T07:27:34;9.40;99.90
69189;DHT22;56302;52.322;5.926;2022-12-20T07:29:59;9.40;99.90
69189;DHT22;56302;52.322;5.926;2022-12-20T07:32:25;9.40;99.90
69189;DHT22;56302;52.322;5.926;2022-12-20T07:34:50;9.40;99.90
69189;DHT22;56302;52.322;5.926;2022-12-20T07:37:16;9.30;99.90
69189;DHT22;56302;52.322;5.926;2022-12-20T07:39:41;9.30;99.80
69189;DHT22;56302;52.322;5.926;2022-12-20T07:42:07;9.40;99.80
69189;DHT22;56302;52.322;5.926;2022-12-20T07:44:33;9.40;99.50
69189;DHT22;56302;52.322;5.926;2022-12-20T07:46:59;9.30;99.50
69189;DHT22;56302;52.322;5.926;2022-12-20T07:49:25;9.40;99.40
69189;DHT22;56302;52.322;5.926;2022-12-20T07:51:53;9.40;99.20
69189;DHT22;56302;52.322;5.926;2022-12-20T07:54:30;9.50;99.00
69189;DHT22;56302;52.322;5.926;2022-12-20T07:57:01;9.50;98.80
69189;DHT22;56302;52.322;5.926;2022-12-20T07:59:33;9.50;98.60
69189;DHT22;56302;52.322;5.926;2022-12-20T08:02:00;9.40;98.50
69189;DHT22;56302;52.322;5.926;2022-12-20T08:04:27;9.40;98.50
69189;DHT22;56302;52.322;5.926;2022-12-20T08:06:57;9.50;98.50
69189;DHT22;56302;52.322;5.926;2022-12-20T08:09:24;9.50;98.10
69189;DHT22;56302;52.322;5.926;2022-12-20T08:11:52;9.50;98.20
69189;DHT22;56302;52.322;5.926;2022-12-20T08:14:19;9.60;98.10
69189;DHT22;56302;52.322;5.926;2022-12-20T08:16:44;9.50;98.20
69189;DHT22;56302;52.322;5.926;2022-12-20T08:19:10;9.50;98.40
69189;DHT22;56302;52.322;5.926;2022-12-20T08:21:37;9.40;98.70
69189;DHT22;56302;52.322;5.926;2022-12-20T08:24:02;9.40;99.10
69189;DHT22;56302;52.322;5.926;2022-12-20T08:26:28;9.40;99.30
69189;DHT22;56302;52.322;5.926;2022-12-20T08:28:54;9.40;99.70
69189;DHT22;56302;52.322;5.926;2022-12-20T08:31:21;9.40;99.80
69189;DHT22;56302;52.322;5.926;2022-12-20T08:33:46;9.40;99.90
69189;DHT22;56302;52.322;5.926;2022-12-20T08:36:13;9.40;99.90
69189;DHT22;56302;52.322;5.926;2022-12-20T08:38:39;9.40;99.90
69189;DHT22;56302;52.322;5.926;2022-12-20T08:41:10;9.40;99.90
69189;DHT22;56302;52.322;5.926;2022-12-20T08:43:37;9.40;99.90
69189;DHT22;56302;52.322;5.926;2022-12-20T08:46:03;9.40;99.90
69189;DHT22;56302;52.322;5.926;2022-12-20T08:48:28;9.40;99.90
69189;DHT22;56302;52.322;5.926;2022-12-20T08:50:55;9.40;99.90
69189;DHT22;56302;52.322;5.926;2022-12-20T08:53:22;9.40;99.90
69189;DHT22;56302;52.322;5.926;2022-12-20T08:55:47;9.30;99.90
69189;DHT22;56302;52.322;5.926;2022-12-20T08:58:13;9.40;99.90
69189;DHT22;56302;52.322;5.926;2022-12-20T09:00:40;9.40;99.90
69189;DHT22;56302;52.322;5.926;2022-12-20T09:03:05;9.40;99.90
69189;DHT22;56302;52.322;5.926;2022-12-20T09:05:32;9.40;99.90
69189;DHT22;56302;52.322;5.926;2022-12-20T09:07:57;9.30;99.90
69189;DHT22;56302;52.322;5.926;2022-12-20T09:10:23;9.30;99.90
69189;DHT22;56302;52.322;5.926;2022-12-20T09:12:48;9.30;99.90
69189;DHT22;56302;52.322;5.926;2022-12-20T09:15:14;9.40;99.90
69189;DHT22;56302;52.322;5.926;2022-12-20T09:17:39;9.40;99.90
69189;DHT22;56302;52.322;5.926;2022-12-20T09:20:05;9.40;99.80
69189;DHT22;56302;52.322;5.926;2022-12-20T09:22:31;9.40;99.90
69189;DHT22;56302;52.322;5.926;2022-12-20T09:24:56;9.30;99.90
69189;DHT22;56302;52.322;5.926;2022-12-20T09:27:22;9.30;99.90
69189;DHT22;56302;52.322;5.926;2022-12-20T09:29:48;9.30;99.90
69189;DHT22;56302;52.322;5.926;2022-12-20T09:32:13;9.30;99.90
69189;DHT22;56302;52.322;5.926;2022-12-20T09:34:39;9.30;99.90
69189;DHT22;56302;52.322;5.926;2022-12-20T09:37:04;9.30;99.90
69189;DHT22;56302;52.322;5.926;2022-12-20T09:39:30;9.30;99.90
69189;DHT22;56302;52.322;5.926;2022-12-20T09:41:56;9.30;99.90
69189;DHT22;56302;52.322;5.926;2022-12-20T09:44:32;9.30;99.90
69189;DHT22;56302;52.322;5.926;2022-12-20T09:47:35;9.30;99.90
69189;DHT22;56302;52.322;5.926;2022-12-20T09:49:55;9.30;99.90
69189;DHT22;56302;52.322;5.926;2022-12-20T09:55:30;9.30;99.90
69189;DHT22;56302;52.322;5.926;2022-12-20T09:58:09;9.30;99.90
69189;DHT22;56302;52.322;5.926;2022-12-20T10:00:45;9.30;99.90
69189;DHT22;56302;52.322;5.926;2022-12-20T10:03:31;9.30;99.90
69189;DHT22;56302;52.322;5.926;2022-12-20T10:06:15;9.30;99.90
69189;DHT22;56302;52.322;5.926;2022-12-20T10:08:49;9.30;99.90
69189;DHT22;56302;52.322;5.926;2022-12-20T10:17:14;9.40;99.90
69189;DHT22;56302;52.322;5.926;2022-12-20T10:20:01;9.40;99.90
69189;DHT22;56302;52.322;5.926;2022-12-20T10:22:45;9.40;99.90
69189;DHT22;56302;52.322;5.926;2022-12-20T10:25:21;9.40;99.90
69189;DHT22;56302;52.322;5.926;2022-12-20T10:27:52;9.40;99.90
69189;DHT22;56302;52.322;5.926;2022-12-20T10:30:22;9.50;99.90
69189;DHT22;56302;52.322;5.926;2022-12-20T10:32:50;9.40;99.90
69189;DHT22;56302;52.322;5.926;2022-12-20T10:35:37;9.40;99.90
69189;DHT22;56302;52.322;5.926;2022-12-20T10:38:08;9.40;99.90
69189;DHT22;56302;52.322;5.926;2022-12-20T10:40:46;9.40;99.90
69189;DHT22;56302;52.322;5.926;2022-12-20T10:43:20;9.50;99.90
69189;DHT22;56302;52.322;5.926;2022-12-20T10:46:06;9.50;99.90
69189;DHT22;56302;52.322;5.926;2022-12-20T10:48:35;9.50;99.90
69189;DHT22;56302;52.322;5.926;2022-12-20T10:53:36;9.50;99.90
69189;DHT22;56302;52.322;5.926;2022-12-20T10:58:55;9.50;99.90
69189;DHT22;56302;52.322;5.926;2022-12-20T11:01:24;9.50;99.90
69189;DHT22;56302;52.322;5.926;2022-12-20T11:03:57;9.50;99.90
69189;DHT22;56302;52.322;5.926;2022-12-20T11:09:29;9.50;99.90
69189;DHT22;56302;52.322;5.926;2022-12-20T11:12:14;9.60;99.90
69189;DHT22;56302;52.322;5.926;2022-12-20T11:14:44;9.60;99.90
69189;DHT22;56302;52.322;5.926;2022-12-20T11:20:08;9.60;99.90
69189;DHT22;56302;52.322;5.926;2022-12-20T11:22:54;9.70;99.90
69189;DHT22;56302;52.322;5.926;2022-12-20T11:28:40;9.70;99.90
69189;DHT22;56302;52.322;5.926;2022-12-20T11:31:24;9.70;99.90
69189;DHT22;56302;52.322;5.926;2022-12-20T11:42:04;9.70;99.90
69189;DHT22;56302;52.322;5.926;2022-12-20T11:53:07;9.70;99.90
69189;DHT22;56302;52.322;5.926;2022-12-20T11:55:35;9.70;99.90
69189;DHT22;56302;52.322;5.926;2022-12-20T12:01:03;9.80;99.90
69189;DHT22;56302;52.322;5.926;2022-12-20T12:03:31;9.80;99.90
69189;DHT22;56302;52.322;5.926;2022-12-20T12:06:02;9.80;99.90
69189;DHT22;56302;52.322;5.926;2022-12-20T12:08:37;9.80;99.90
69189;DHT22;56302;52.322;5.926;2022-12-20T12:11:21;9.80;99.90
69189;DHT22;56302;52.322;5.926;2022-12-20T12:13:48;9.80;99.90
69189;DHT22;56302;52.322;5.926;2022-12-20T12:16:27;9.80;99.90
69189;DHT22;56302;52.322;5.926;2022-12-20T12:18:57;9.80;99.90
69189;DHT22;56302;52.322;5.926;2022-12-20T12:21:26;9.80;99.90
69189;DHT22;56302;52.322;5.926;2022-12-20T12:26:48;9.80;99.90
69189;DHT22;56302;52.322;5.926;2022-12-20T12:29:16;9.90;99.90
69189;DHT22;56302;52.322;5.926;2022-12-20T12:31:52;9.90;99.90
69189;DHT22;56302;52.322;5.926;2022-12-20T12:37:11;9.80;99.90
69189;DHT22;56302;52.322;5.926;2022-12-20T12:45:34;9.90;99.90
69189;DHT22;56302;52.322;5.926;2022-12-20T12:48:13;9.90;99.90
69189;DHT22;56302;52.322;5.926;2022-12-20T12:50:45;9.90;99.90
69189;DHT22;56302;52.322;5.926;2022-12-20T12:55:48;9.90;99.90
69189;DHT22;56302;52.322;5.926;2022-12-20T13:00:54;9.90;99.90
69189;DHT22;56302;52.322;5.926;2022-12-20T13:11:35;9.90;99.90
69189;DHT22;56302;52.322;5.926;2022-12-20T13:19:34;9.90;99.90
69189;DHT22;56302;52.322;5.926;2022-12-20T13:27:47;9.90;99.90
69189;DHT22;56302;52.322;5.926;2022-12-20T13:45:45;9.90;99.90
69189;DHT22;56302;52.322;5.926;2022-12-20T13:48:14;9.90;99.90
69189;DHT22;56302;52.322;5.926;2022-12-20T13:50:48;9.90;99.90
69189;DHT22;56302;52.322;5.926;2022-12-20T13:53:17;9.90;99.90
69189;DHT22;56302;52.322;5.926;2022-12-20T13:55:43;9.90;99.90
69189;DHT22;56302;52.322;5.926;2022-12-20T13:58:15;9.90;99.90
69189;DHT22;56302;52.322;5.926;2022-12-20T14:00:43;9.90;99.90
69189;DHT22;56302;52.322;5.926;2022-12-20T14:03:29;9.90;99.90
69189;DHT22;56302;52.322;5.926;2022-12-20T14:06:03;9.90;99.90
69189;DHT22;56302;52.322;5.926;2022-12-20T14:08:35;9.90;99.90
69189;DHT22;56302;52.322;5.926;2022-12-20T14:13:38;9.90;99.90
69189;DHT22;56302;52.322;5.926;2022-12-20T14:16:14;9.90;99.90
69189;DHT22;56302;52.322;5.926;2022-12-20T14:18:41;9.90;99.90
69189;DHT22;56302;52.322;5.926;2022-12-20T14:21:12;9.90;99.90
69189;DHT22;56302;52.322;5.926;2022-12-20T14:23:40;9.80;99.90
69189;DHT22;56302;52.322;5.926;2022-12-20T14:26:15;9.80;99.90
69189;DHT22;56302;52.322;5.926;2022-12-20T14:28:49;9.90;99.90
69189;DHT22;56302;52.322;5.926;2022-12-20T14:33:49;9.80;99.90
69189;DHT22;56302;52.322;5.926;2022-12-20T14:38:46;9.80;99.90
69189;DHT22;56302;52.322;5.926;2022-12-20T14:44:15;9.90;99.90
69189;DHT22;56302;52.322;5.926;2022-12-20T14:46:50;9.80;99.90
69189;DHT22;56302;52.322;5.926;2022-12-20T14:51:46;9.80;99.90
69189;DHT22;56302;52.322;5.926;2022-12-20T14:54:26;9.80;99.90
69189;DHT22;56302;52.322;5.926;2022-12-20T14:56:53;9.80;99.90
69189;DHT22;56302;52.322;5.926;2022-12-20T14:59:27;9.80;99.90
69189;DHT22;56302;52.322;5.926;2022-12-20T15:01:53;9.80;99.90
69189;DHT22;56302;52.322;5.926;2022-12-20T15:06:47;9.80;99.90
69189;DHT22;56302;52.322;5.926;2022-12-20T15:09:12;9.80;99.90
69189;DHT22;56302;52.322;5.926;2022-12-20T15:11:40;9.80;99.90
69189;DHT22;56302;52.322;5.926;2022-12-20T15:14:35;9.80;99.90
69189;DHT22;56302;52.322;5.926;2022-12-20T15:17:12;9.70;99.90
69189;DHT22;56302;52.322;5.926;2022-12-20T15:19:39;9.70;99.90
69189;DHT22;56302;52.322;5.926;2022-12-20T15:22:04;9.80;99.90
69189;DHT22;56302;52.322;5.926;2022-12-20T15:24:31;9.70;99.90
69189;DHT22;56302;52.322;5.926;2022-12-20T15:26:56;9.70;99.90
69189;DHT22;56302;52.322;5.926;2022-12-20T15:29:24;9.70;99.90
69189;DHT22;56302;52.322;5.926;2022-12-20T15:31:52;9.70;99.90
69189;DHT22;56302;52.322;5.926;2022-12-20T15:34:24;9.70;99.90
69189;DHT22;56302;52.322;5.926;2022-12-20T15:36:50;9.70;99.90
69189;DHT22;56302;52.322;5.926;2022-12-20T15:39:15;9.70;99.90
69189;DHT22;56302;52.322;5.926;2022-12-20T15:41:44;9.70;99.90
69189;DHT22;56302;52.322;5.926;2022-12-20T15:44:14;9.70;99.90
69189;DHT22;56302;52.322;5.926;2022-12-20T15:46:40;9.70;99.90
69189;DHT22;56302;52.322;5.926;2022-12-20T15:49:14;9.70;99.90
69189;DHT22;56302;52.322;5.926;2022-12-20T15:51:40;9.70;99.90
69189;DHT22;56302;52.322;5.926;2022-12-20T15:54:22;9.70;99.90
69189;DHT22;56302;52.322;5.926;2022-12-20T15:56:49;9.70;99.90
69189;DHT22;56302;52.322;5.926;2022-12-20T15:59:15;9.70;99.90
69189;DHT22;56302;52.322;5.926;2022-12-20T16:01:41;9.60;99.90
69189;DHT22;56302;52.322;5.926;2022-12-20T16:04:09;9.60;99.90
69189;DHT22;56302;52.322;5.926;2022-12-20T16:06:37;9.60;99.90
69189;DHT22;56302;52.322;5.926;2022-12-20T16:09:02;9.60;99.90
69189;DHT22;56302;52.322;5.926;2022-12-20T16:11:29;9.60;99.90
69189;DHT22;56302;52.322;5.926;2022-12-20T16:13:56;9.60;99.90
69189;DHT22;56302;52.322;5.926;2022-12-20T16:16:31;9.60;99.90
69189;DHT22;56302;52.322;5.926;2022-12-20T16:18:57;9.60;99.90
69189;DHT22;56302;52.322;5.926;2022-12-20T16:21:28;9.60;99.90
69189;DHT22;56302;52.322;5.926;2022-12-20T16:23:55;9.60;99.90
69189;DHT22;56302;52.322;5.926;2022-12-20T16:26:22;9.60;99.90
69189;DHT22;56302;52.322;5.926;2022-12-20T16:28:49;9.60;99.90
69189;DHT22;56302;52.322;5.926;2022-12-20T16:31:28;9.60;99.90
69189;DHT22;56302;52.322;5.926;2022-12-20T16:33:55;9.60;99.90
69189;DHT22;56302;52.322;5.926;2022-12-20T16:36:22;9.60;99.90
69189;DHT22;56302;52.322;5.926;2022-12-20T16:38:48;9.60;99.90
69189;DHT22;56302;52.322;5.926;2022-12-20T16:41:20;9.60;99.90
69189;DHT22;56302;52.322;5.926;2022-12-20T16:43:48;9.60;99.90
69189;DHT22;56302;52.322;5.926;2022-12-20T16:46:18;9.60;99.90
69189;DHT22;56302;52.322;5.926;2022-12-20T16:48:44;9.50;99.90
69189;DHT22;56302;52.322;5.926;2022-12-20T16:51:30;9.60;99.90
69189;DHT22;56302;52.322;5.926;2022-12-20T16:54:04;9.50;99.90
69189;DHT22;56302;52.322;5.926;2022-12-20T16:56:30;9.50;99.90
69189;DHT22;56302;52.322;5.926;2022-12-20T16:58:56;9.50;99.90
69189;DHT22;56302;52.322;5.926;2022-12-20T17:01:34;9.50;99.90
69189;DHT22;56302;52.322;5.926;2022-12-20T17:04:01;9.50;99.90
69189;DHT22;56302;52.322;5.926;2022-12-20T17:06:26;9.60;99.90
69189;DHT22;56302;52.322;5.926;2022-12-20T17:08:52;9.50;99.90
69189;DHT22;56302;52.322;5.926;2022-12-20T17:13:46;9.50;99.90
69189;DHT22;56302;52.322;5.926;2022-12-20T17:16:13;9.50;99.90
69189;DHT22;56302;52.322;5.926;2022-12-20T17:18:40;9.50;99.90
69189;DHT22;56302;52.322;5.926;2022-12-20T17:23:42;9.50;99.90
69189;DHT22;56302;52.322;5.926;2022-12-20T17:26:09;9.50;99.90
69189;DHT22;56302;52.322;5.926;2022-12-20T17:28:37;9.50;99.90
69189;DHT22;56302;52.322;5.926;2022-12-20T17:31:02;9.50;99.90
69189;DHT22;56302;52.322;5.926;2022-12-20T17:33:29;9.50;99.90
69189;DHT22;56302;52.322;5.926;2022-12-20T17:35:54;9.40;99.90
69189;DHT22;56302;52.322;5.926;2022-12-20T17:38:20;9.40;99.90
69189;DHT22;56302;52.322;5.926;2022-12-20T17:40:46;9.40;99.90
69189;DHT22;56302;52.322;5.926;2022-12-20T17:43:12;9.40;99.90
69189;DHT22;56302;52.322;5.926;2022-12-20T17:45:38;9.40;99.90
69189;DHT22;56302;52.322;5.926;2022-12-20T17:48:04;9.40;99.90
69189;DHT22;56302;52.322;5.926;2022-12-20T17:50:30;9.40;99.90
69189;DHT22;56302;52.322;5.926;2022-12-20T17:52:55;9.40;99.90
69189;DHT22;56302;52.322;5.926;2022-12-20T17:55:25;9.40;99.90
69189;DHT22;56302;52.322;5.926;2022-12-20T17:57:53;9.40;99.90
69189;DHT22;56302;52.322;5.926;2022-12-20T18:00:21;9.40;99.90
69189;DHT22;56302;52.322;5.926;2022-12-20T18:02:46;9.30;99.90
69189;DHT22;56302;52.322;5.926;2022-12-20T18:05:12;9.40;99.90
69189;DHT22;56302;52.322;5.926;2022-12-20T18:07:38;9.40;99.90
69189;DHT22;56302;52.322;5.926;2022-12-20T18:10:04;9.40;99.90